createdAt,value
2019-02-02T00:00:02.918Z,100498.17
2019-02-02T00:02:33.397Z,100501.61
2019-02-02T00:05:05.101Z,100503.41
2019-02-02T00:07:36.973Z,100506.14
2019-02-02T00:10:08.357Z,100514.18
2019-02-02T00:12:39.337Z,100518.97
2019-02-02T00:15:10.002Z,100513.48
2019-02-02T00:17:41.403Z,100517.47
2019-02-02T00:20:12.610Z,100518.52
2019-02-02T00:22:43.314Z,100517.73
2019-02-02T00:25:14.228Z,100510.82
2019-02-02T00:27:44.722Z,100512.89
2019-02-02T00:30:15.640Z,100514.13
2019-02-02T00:32:46.399Z,100515.73
2019-02-02T00:35:17.226Z,100514.22
2019-02-02T00:37:47.878Z,100516.07
2019-02-02T00:40:19.743Z,100513.66
2019-02-02T00:42:50.356Z,100514.89
2019-02-02T00:45:21.431Z,100519.70
2019-02-02T00:47:52.949Z,100515.88
2019-02-02T00:50:23.459Z,100512.95
2019-02-02T00:52:54.299Z,100511.79
2019-02-02T00:55:24.849Z,100512.23
2019-02-02T00:57:55.125Z,100504.54
2019-02-02T01:00:28.142Z,100508.17
2019-02-02T01:02:59.159Z,100508.17
2019-02-02T01:05:31.499Z,100506.23
2019-02-02T01:08:02.278Z,100500.65
2019-02-02T01:10:33.915Z,100495.61
2019-02-02T01:13:05.168Z,100493.02
2019-02-02T01:15:36.076Z,100476.85
2019-02-02T01:18:07.033Z,100487.13
2019-02-02T01:20:37.583Z,100484.37
2019-02-02T01:23:08.787Z,100477.30
2019-02-02T01:25:39.486Z,100478.08
2019-02-02T01:28:10.229Z,100478.08
2019-02-02T01:30:40.928Z,100477.00
2019-02-02T01:33:12.539Z,100467.50
2019-02-02T01:35:43.282Z,100464.84
2019-02-02T01:38:14.230Z,100467.30
2019-02-02T01:40:45.312Z,100474.00
2019-02-02T01:43:16.408Z,100479.95
2019-02-02T01:45:47.274Z,100483.27
2019-02-02T01:48:18.925Z,100479.82
2019-02-02T01:50:49.471Z,100482.30
2019-02-02T01:53:20.039Z,100489.01
2019-02-02T01:55:51.006Z,100488.90
2019-02-02T01:58:21.902Z,100492.13
2019-02-02T02:00:54.569Z,100486.53
2019-02-02T02:03:25.240Z,100495.64
2019-02-02T02:05:56.837Z,100489.95
2019-02-02T02:08:27.883Z,100490.93
2019-02-02T02:10:58.563Z,100486.77
2019-02-02T02:13:29.182Z,100489.92
2019-02-02T02:16:01.836Z,100488.70
2019-02-02T02:18:32.161Z,100488.53
2019-02-02T02:21:02.562Z,100483.67
2019-02-02T02:23:33.327Z,100482.77
2019-02-02T02:26:04.942Z,100475.55
2019-02-02T02:28:35.365Z,100476.12
2019-02-02T02:31:05.872Z,100477.85
2019-02-02T02:33:36.340Z,100469.84
2019-02-02T02:36:06.828Z,100472.63
2019-02-02T02:38:39.002Z,100468.84
2019-02-02T02:41:09.827Z,100465.33
2019-02-02T02:43:40.899Z,100464.97
2019-02-02T02:46:11.556Z,100464.83
2019-02-02T02:48:41.944Z,100466.64
2019-02-02T02:51:12.970Z,100467.67
2019-02-02T02:53:43.876Z,100471.82
2019-02-02T02:56:14.492Z,100467.22
2019-02-02T02:58:45.541Z,100462.83
2019-02-02T03:01:17.277Z,100465.80
2019-02-02T03:03:47.727Z,100470.52
2019-02-02T03:06:19.800Z,100468.08
2019-02-02T03:08:50.770Z,100470.08
2019-02-02T03:11:21.732Z,100473.11
2019-02-02T03:13:52.460Z,100469.95
2019-02-02T03:16:26.163Z,100456.23
2019-02-02T03:18:56.923Z,100457.66
2019-02-02T03:21:27.650Z,100456.30
2019-02-02T03:23:58.787Z,100455.14
2019-02-02T03:26:29.253Z,100447.61
2019-02-02T03:28:59.775Z,100447.09
2019-02-02T03:31:30.373Z,100443.72
2019-02-02T03:34:01.981Z,100453.56
2019-02-02T03:36:32.746Z,100444.96
2019-02-02T03:39:06.838Z,100462.56
2019-02-02T03:41:37.432Z,100463.14
2019-02-02T03:44:07.879Z,100459.91
2019-02-02T03:46:38.722Z,100457.59
2019-02-02T03:49:10.502Z,100459.16
2019-02-02T03:51:41.195Z,100464.57
2019-02-02T03:54:11.714Z,100466.88
2019-02-02T03:56:42.694Z,100464.30
2019-02-02T03:59:13.858Z,100461.84
2019-02-02T04:01:45.708Z,100464.20
2019-02-02T04:04:16.747Z,100467.56
2019-02-02T04:06:48.064Z,100461.91
2019-02-02T04:09:18.953Z,100456.94
2019-02-02T04:11:50.351Z,100451.42
2019-02-02T04:14:21.121Z,100465.22
2019-02-02T04:16:52.016Z,100467.66
2019-02-02T04:19:23.312Z,100477.05
2019-02-02T04:21:53.979Z,100474.66
2019-02-02T04:24:24.701Z,100479.77
2019-02-02T04:26:55.117Z,100474.80
2019-02-02T04:29:25.670Z,100478.39
2019-02-02T04:31:57.790Z,100473.92
2019-02-02T04:34:28.386Z,100474.76
2019-02-02T04:36:58.960Z,100471.33
2019-02-02T04:39:30.550Z,100470.09
2019-02-02T04:42:01.125Z,100472.23
2019-02-02T04:44:31.574Z,100476.31
2019-02-02T04:47:02.534Z,100477.60
2019-02-02T04:49:33.036Z,100496.58
2019-02-02T04:52:03.556Z,100498.06
2019-02-02T04:54:33.974Z,100491.25
2019-02-02T04:57:04.492Z,100490.09
2019-02-02T04:59:35.095Z,100495.76
2019-02-02T05:02:06.640Z,100498.94
2019-02-02T05:04:37.310Z,100502.47
2019-02-02T05:07:08.048Z,100497.36
2019-02-02T05:09:38.543Z,100494.84
2019-02-02T05:12:09.315Z,100501.02
2019-02-02T05:14:40.116Z,100504.14
2019-02-02T05:17:11.044Z,100500.27
2019-02-02T05:19:41.699Z,100496.98
2019-02-02T05:22:12.429Z,100505.66
2019-02-02T05:24:44.003Z,100502.88
2019-02-02T05:27:15.049Z,100506.67
2019-02-02T05:29:45.688Z,100506.06
2019-02-02T05:32:16.324Z,100507.48
2019-02-02T05:34:47.798Z,100507.45
2019-02-02T05:37:18.551Z,100498.81
2019-02-02T05:39:49.371Z,100508.20
2019-02-02T05:42:20.244Z,100500.75
2019-02-02T05:44:50.854Z,100507.17
2019-02-02T05:47:21.057Z,100498.27
2019-02-02T05:49:51.714Z,100508.29
2019-02-02T05:52:22.185Z,100502.77
2019-02-02T05:54:52.689Z,100504.13
2019-02-02T05:57:23.372Z,100499.80
2019-02-02T05:59:54.181Z,100496.59
2019-02-02T06:02:25.751Z,100504.58
2019-02-02T06:04:56.415Z,100503.01
2019-02-02T06:07:27.312Z,100519.80
2019-02-02T06:09:57.828Z,100519.80
2019-02-02T06:12:28.936Z,100520.12
2019-02-02T06:14:59.750Z,100519.30
2019-02-02T06:17:30.751Z,100519.71
2019-02-02T06:20:01.228Z,100521.11
2019-02-02T06:22:32.267Z,100521.11
2019-02-02T06:25:02.876Z,100522.69
2019-02-02T06:27:33.294Z,100522.69
2019-02-02T06:30:04.855Z,100511.37
2019-02-02T06:32:37.055Z,100511.37
2019-02-02T06:35:08.958Z,100504.33
2019-02-02T06:37:39.702Z,100512.23
2019-02-02T06:40:11.627Z,100511.48
2019-02-02T06:42:42.613Z,100511.48
2019-02-02T06:45:16.518Z,100519.68
2019-02-02T06:47:47.470Z,100519.68
2019-02-02T06:50:18.367Z,100516.92
2019-02-02T06:52:49.156Z,100508.02
2019-02-02T06:55:19.780Z,100508.02
2019-02-02T06:57:50.294Z,100516.44
2019-02-02T07:00:22.304Z,100507.61
2019-02-02T07:02:53.876Z,100509.19
2019-02-02T07:05:24.628Z,100509.19
2019-02-02T07:08:14.137Z,100517.09
2019-02-02T07:10:45.054Z,100517.09
2019-02-02T07:13:15.916Z,100503.11
2019-02-02T07:15:46.398Z,100503.11
2019-02-02T07:18:17.038Z,100522.22
2019-02-02T07:20:47.758Z,100519.98
2019-02-02T07:23:18.475Z,100524.57
2019-02-02T07:25:49.209Z,100522.40
2019-02-02T07:28:20.054Z,100522.40
2019-02-02T07:30:50.484Z,100524.67
2019-02-02T07:33:21.033Z,100508.72
2019-02-02T07:35:54.045Z,100517.47
2019-02-02T07:38:23.881Z,100515.98
2019-02-02T07:40:54.615Z,100516.97
2019-02-02T07:43:25.239Z,100507.24
2019-02-02T07:45:55.569Z,100513.26
2019-02-02T07:48:26.297Z,100494.39
2019-02-02T07:50:56.897Z,100514.80
2019-02-02T07:53:27.831Z,100514.80
2019-02-02T07:55:58.744Z,100510.27
2019-02-02T07:58:29.324Z,100512.38
2019-02-02T08:01:01.094Z,100512.38
2019-02-02T08:03:32.978Z,100494.42
2019-02-02T08:06:03.646Z,100500.02
2019-02-02T08:08:34.164Z,100504.23
2019-02-02T08:11:04.727Z,100499.52
2019-02-02T08:13:35.900Z,100499.52
2019-02-02T08:16:06.450Z,100505.78
2019-02-02T08:18:36.798Z,100510.02
2019-02-02T08:21:07.712Z,100510.02
2019-02-02T08:23:39.949Z,100504.20
2019-02-02T08:26:10.985Z,100502.32
2019-02-02T08:28:42.306Z,100512.00
2019-02-02T08:31:13.563Z,100510.72
2019-02-02T08:33:45.407Z,100511.17
2019-02-02T08:36:16.228Z,100516.73
2019-02-02T08:38:46.644Z,100515.33
2019-02-02T08:41:17.665Z,100514.22
2019-02-02T08:43:48.193Z,100522.67
2019-02-02T08:46:18.529Z,100508.63
2019-02-02T08:48:49.054Z,100522.58
2019-02-02T08:51:20.261Z,100517.47
2019-02-02T08:53:52.002Z,100522.00
2019-02-02T08:56:22.797Z,100531.42
2019-02-02T08:58:53.487Z,100526.66
2019-02-02T09:01:24.221Z,100527.52
2019-02-02T09:03:57.137Z,100532.98
2019-02-02T09:06:38.508Z,100524.56
2019-02-02T09:09:00.614Z,100522.30
2019-02-02T09:11:31.340Z,100522.30
2019-02-02T09:14:01.883Z,100515.75
2019-02-02T09:16:32.331Z,100516.73
2019-02-02T09:19:02.873Z,100515.34
2019-02-02T09:21:34.712Z,100511.77
2019-02-02T09:24:05.451Z,100508.12
2019-02-02T09:26:35.734Z,100511.52
2019-02-02T09:29:06.614Z,100507.92
2019-02-02T09:31:37.260Z,100505.65
2019-02-02T09:34:09.891Z,100504.31
2019-02-02T09:36:40.766Z,100505.11
2019-02-02T09:39:11.456Z,100501.06
2019-02-02T09:41:42.492Z,100500.66
2019-02-02T09:44:13.479Z,100495.63
2019-02-02T09:46:44.347Z,100498.36
2019-02-02T09:49:14.997Z,100494.08
2019-02-02T09:51:45.893Z,100500.52
2019-02-02T09:54:26.450Z,100501.16
2019-02-02T09:56:49.194Z,100490.09
2019-02-02T09:59:19.682Z,100487.63
2019-02-02T10:01:50.772Z,100484.45
2019-02-02T10:04:22.291Z,100484.45
2019-02-02T10:06:52.521Z,100475.62
2019-02-02T10:09:23.467Z,100476.38
2019-02-02T10:11:54.119Z,100483.58
2019-02-02T10:14:24.855Z,100483.58
2019-02-02T10:16:55.412Z,100479.38
2019-02-02T10:19:26.150Z,100476.58
2019-02-02T10:21:56.482Z,100471.16
2019-02-02T10:24:28.664Z,100470.52
2019-02-02T10:26:59.381Z,100463.85
2019-02-02T10:29:29.955Z,100467.01
2019-02-02T10:32:00.396Z,100462.14
2019-02-02T10:34:30.979Z,100471.88
2019-02-02T10:37:01.538Z,100459.02
2019-02-02T10:39:31.708Z,100455.76
2019-02-02T10:42:02.823Z,100456.06
2019-02-02T10:44:33.068Z,100457.92
2019-02-02T10:47:03.527Z,100456.10
2019-02-02T10:49:34.341Z,100448.80
2019-02-02T10:52:05.245Z,100448.04
2019-02-02T10:54:35.908Z,100438.61
2019-02-02T10:57:06.782Z,100436.87
2019-02-02T10:59:37.401Z,100433.64
2019-02-02T11:02:08.270Z,100436.25
2019-02-02T11:04:42.836Z,100430.05
2019-02-02T11:07:13.556Z,100425.66
2019-02-02T11:09:44.199Z,100421.30
2019-02-02T11:12:14.776Z,100412.51
2019-02-02T11:14:45.281Z,100420.46
2019-02-02T11:17:18.679Z,100409.71
2019-02-02T11:19:49.531Z,100401.34
2019-02-02T11:22:20.050Z,100397.00
2019-02-02T11:24:50.725Z,100393.41
2019-02-02T11:27:26.897Z,100390.51
2019-02-02T11:29:57.579Z,100391.29
2019-02-02T11:32:27.935Z,100388.29
2019-02-02T11:34:58.784Z,100391.72
2019-02-02T11:37:29.507Z,100393.58
2019-02-02T11:40:00.335Z,100398.25
2019-02-02T11:42:30.982Z,100392.77
2019-02-02T11:45:01.782Z,100387.16
2019-02-02T11:47:32.605Z,100378.00
2019-02-02T11:50:03.084Z,100370.47
2019-02-02T11:52:34.992Z,100372.41
2019-02-02T11:55:05.994Z,100370.57
2019-02-02T11:57:37.206Z,100367.92
2019-02-02T12:00:16.286Z,100373.31
2019-02-02T12:02:49.372Z,100371.55
2019-02-02T12:05:20.188Z,100363.14
2019-02-02T12:07:50.931Z,100356.34
2019-02-02T12:10:25.774Z,100349.34
2019-02-02T12:12:56.270Z,100352.83
2019-02-02T12:15:26.899Z,100349.04
2019-02-02T12:17:58.358Z,100354.48
2019-02-02T12:20:32.961Z,100362.67
2019-02-02T12:23:03.298Z,100355.69
2019-02-02T12:25:33.983Z,100341.11
2019-02-02T12:28:05.622Z,100345.79
2019-02-02T12:30:37.472Z,100345.45
2019-02-02T12:33:09.146Z,100346.22
2019-02-02T12:35:40.721Z,100345.96
2019-02-02T12:38:14.715Z,100350.97
2019-02-02T12:40:45.204Z,100351.64
2019-02-02T12:43:15.659Z,100345.77
2019-02-02T12:45:49.353Z,100349.09
2019-02-02T12:48:20.047Z,100352.55
2019-02-02T12:50:51.108Z,100343.13
2019-02-02T12:53:22.170Z,100348.75
2019-02-02T12:55:53.217Z,100342.58
2019-02-02T12:58:23.743Z,100354.14
2019-02-02T13:00:54.360Z,100349.55
2019-02-02T13:03:26.549Z,100353.52
2019-02-02T13:05:59.362Z,100356.70
2019-02-02T13:08:29.793Z,100354.98
2019-02-02T13:11:00.443Z,100353.27
2019-02-02T13:13:31.099Z,100360.38
2019-02-02T13:16:01.733Z,100359.37
2019-02-02T13:18:32.494Z,100364.86
2019-02-02T13:21:02.893Z,100358.89
2019-02-02T13:23:33.559Z,100347.46
2019-02-02T13:26:05.756Z,100355.67
2019-02-02T13:28:36.626Z,100365.03
2019-02-02T13:31:07.203Z,100365.17
2019-02-02T13:33:38.056Z,100362.87
2019-02-02T13:36:09.130Z,100363.02
2019-02-02T13:38:40.196Z,100369.25
2019-02-02T13:41:10.840Z,100362.72
2019-02-02T13:43:41.753Z,100366.13
2019-02-02T13:46:13.752Z,100366.49
2019-02-02T13:48:44.830Z,100376.44
2019-02-02T13:51:15.351Z,100375.95
2019-02-02T13:53:46.156Z,100371.94
2019-02-02T13:56:18.549Z,100379.55
2019-02-02T13:58:50.792Z,100369.43
2019-02-02T14:01:21.448Z,100370.55
2019-02-02T14:03:52.032Z,100372.63
2019-02-02T14:06:23.768Z,100371.63
2019-02-02T14:08:54.461Z,100382.80
2019-02-02T14:11:24.961Z,100376.98
2019-02-02T14:13:55.782Z,100373.08
2019-02-02T14:16:26.358Z,100373.08
2019-02-02T14:18:56.929Z,100374.34
2019-02-02T14:21:27.800Z,100376.95
2019-02-02T14:23:58.498Z,100372.48
2019-02-02T14:26:29.309Z,100384.88
2019-02-02T14:28:59.872Z,100382.00
2019-02-02T14:31:30.392Z,100387.02
2019-02-02T14:34:01.272Z,100387.02
2019-02-02T14:36:32.340Z,100375.68
2019-02-02T14:39:05.863Z,100370.54
2019-02-02T14:41:38.483Z,100371.88
2019-02-02T14:44:09.733Z,100371.88
2019-02-02T14:46:40.708Z,100368.05
2019-02-02T14:49:13.115Z,100353.46
2019-02-02T14:51:44.291Z,100353.46
2019-02-02T14:54:15.293Z,100364.87
2019-02-02T14:56:48.174Z,100366.08
2019-02-02T14:59:18.748Z,100366.73
2019-02-02T15:01:49.515Z,100366.73
2019-02-02T15:04:20.597Z,100373.63
2019-02-02T15:06:52.603Z,100372.52
2019-02-02T15:09:26.059Z,100374.57
2019-02-02T15:11:55.937Z,100374.57
2019-02-02T15:14:28.935Z,100367.86
2019-02-02T15:16:59.528Z,100361.73
2019-02-02T15:19:31.062Z,100361.73
2019-02-02T15:22:01.331Z,100369.25
2019-02-02T15:24:33.071Z,100389.37
2019-02-02T15:27:04.046Z,100384.72
2019-02-02T15:29:34.522Z,100384.72
2019-02-02T15:32:05.072Z,100388.52
2019-02-02T15:34:35.651Z,100390.39
2019-02-02T15:37:07.540Z,100383.30
2019-02-02T15:39:38.387Z,100383.66
2019-02-02T15:42:08.948Z,100380.31
2019-02-02T15:44:40.241Z,100383.11
2019-02-02T15:47:11.242Z,100383.11
2019-02-02T15:49:41.868Z,100386.83
2019-02-02T15:52:13.737Z,100391.19
2019-02-02T15:54:44.417Z,100383.96
2019-02-02T15:57:16.386Z,100383.96
2019-02-02T15:59:47.698Z,100380.96
2019-02-02T16:02:18.349Z,100380.96
2019-02-02T16:04:50.531Z,100391.29
2019-02-02T16:07:22.205Z,100391.68
2019-02-02T16:09:52.747Z,100391.68
2019-02-02T16:12:23.220Z,100384.22
2019-02-02T16:14:53.785Z,100386.63
2019-02-02T16:17:24.500Z,100386.63
2019-02-02T16:19:55.038Z,100373.59
2019-02-02T16:22:25.532Z,100373.59
2019-02-02T16:24:56.329Z,100382.39
2019-02-02T16:27:27.045Z,100376.20
2019-02-02T16:29:57.677Z,100387.77
2019-02-02T16:32:28.189Z,100401.19
2019-02-02T16:34:58.627Z,100407.05
2019-02-02T16:37:28.797Z,100407.05
2019-02-02T16:39:59.079Z,100400.89
2019-02-02T16:42:29.907Z,100406.55
2019-02-02T16:45:00.594Z,100406.55
2019-02-02T16:47:30.804Z,100417.61
2019-02-02T16:50:01.964Z,100417.61
2019-02-02T16:52:32.479Z,100407.31
2019-02-02T16:55:00.750Z,100416.70
2019-02-02T16:57:31.970Z,100421.45
2019-02-02T17:00:03.292Z,100416.16
2019-02-02T17:02:33.917Z,100416.16
2019-02-02T17:05:05.235Z,100416.52
2019-02-02T17:07:36.683Z,100418.37
2019-02-02T17:10:10.916Z,100418.37
2019-02-02T17:12:42.074Z,100414.10
2019-02-02T17:15:12.946Z,100414.10
2019-02-02T17:17:44.501Z,100420.61
2019-02-02T17:20:17.363Z,100414.94
2019-02-02T17:22:48.932Z,100418.18
2019-02-02T17:25:22.771Z,100418.53
2019-02-02T17:27:53.310Z,100418.53
2019-02-02T17:30:24.364Z,100410.77
2019-02-02T17:32:56.998Z,100410.77
2019-02-02T17:35:34.308Z,100410.52
2019-02-02T17:38:07.938Z,100408.83
2019-02-02T17:40:38.593Z,100412.64
2019-02-02T17:43:11.455Z,100412.64
2019-02-02T17:48:13.774Z,100396.09
2019-02-02T17:50:45.194Z,100396.09
2019-02-02T17:53:15.286Z,100406.95
2019-02-02T17:55:46.007Z,100406.95
2019-02-02T17:58:18.141Z,100410.95
2019-02-02T18:00:52.650Z,100411.25
2019-02-02T18:03:23.974Z,100403.88
2019-02-02T18:05:55.104Z,100403.88
2019-02-02T18:08:26.359Z,100404.42
2019-02-02T18:10:57.424Z,100401.06
2019-02-02T18:13:28.637Z,100392.62
2019-02-02T18:18:42.851Z,100400.12
2019-02-02T18:21:13.725Z,100401.15
2019-02-02T18:23:45.212Z,100399.19
2019-02-02T18:26:15.980Z,100404.02
2019-02-02T18:28:47.747Z,100403.27
2019-02-02T18:31:21.514Z,100387.53
2019-02-02T18:33:54.736Z,100397.88
2019-02-02T18:36:25.158Z,100404.48
2019-02-02T18:38:56.024Z,100406.80
2019-02-02T18:41:27.198Z,100403.94
2019-02-02T18:43:57.926Z,100400.39
2019-02-02T18:46:28.358Z,100403.09
2019-02-02T18:48:59.056Z,100401.33
2019-02-02T18:51:30.668Z,100400.15
2019-02-02T18:54:02.749Z,100395.82
2019-02-02T18:56:33.213Z,100395.82
2019-02-02T18:59:04.152Z,100389.97
2019-02-02T19:01:35.496Z,100389.97
2019-02-02T19:04:08.627Z,100398.74
2019-02-02T19:06:40.178Z,100398.74
2019-02-02T19:09:14.434Z,100404.61
2019-02-02T19:11:44.918Z,100388.80
2019-02-02T19:14:15.940Z,100388.80
2019-02-02T19:16:46.876Z,100390.45
2019-02-02T19:19:17.467Z,100390.45
2019-02-02T19:21:47.840Z,100387.04
2019-02-02T19:24:18.741Z,100387.04
2019-02-02T19:26:49.695Z,100388.16
2019-02-02T19:29:20.985Z,100396.14
2019-02-02T19:31:53.058Z,100391.77
2019-02-02T19:34:23.585Z,100385.00
2019-02-02T19:36:54.117Z,100399.39
2019-02-02T19:39:25.222Z,100399.39
2019-02-02T19:41:58.609Z,100413.44
2019-02-02T19:44:29.331Z,100413.44
2019-02-02T19:47:00.601Z,100405.55
2019-02-02T19:49:32.644Z,100399.70
2019-02-02T19:52:03.988Z,100397.63
2019-02-02T19:54:35.890Z,100401.73
2019-02-02T19:57:07.732Z,100401.73
2019-02-02T19:59:38.975Z,100398.08
2019-02-02T20:02:10.112Z,100398.08
2019-02-02T20:04:40.801Z,100396.25
2019-02-02T20:07:11.798Z,100396.25
2019-02-02T20:09:43.656Z,100397.23
2019-02-02T20:12:14.580Z,100393.42
2019-02-02T20:14:45.308Z,100387.93
2019-02-02T20:17:15.967Z,100385.40
2019-02-02T20:19:47.911Z,100387.72
2019-02-02T20:22:18.630Z,100387.72
2019-02-02T20:24:49.195Z,100403.45
2019-02-02T20:27:19.925Z,100403.85
2019-02-02T20:29:50.632Z,100408.12
2019-02-02T20:32:21.140Z,100393.14
2019-02-02T20:34:52.081Z,100394.67
2019-02-02T20:37:22.800Z,100395.06
2019-02-02T20:39:53.335Z,100393.09
2019-02-02T20:42:24.112Z,100400.15
2019-02-02T20:44:55.330Z,100395.61
2019-02-02T20:47:26.174Z,100391.61
2019-02-02T20:49:57.255Z,100391.61
2019-02-02T20:52:27.708Z,100392.53
2019-02-02T20:54:58.489Z,100384.60
2019-02-02T20:57:29.021Z,100389.53
2019-02-02T20:59:59.480Z,100394.16
2019-02-02T21:02:29.892Z,100392.68
2019-02-02T21:04:59.995Z,100391.02
2019-02-02T21:07:30.566Z,100387.78
2019-02-02T21:10:02.067Z,100372.68
2019-02-02T21:12:32.464Z,100386.93
2019-02-02T21:15:03.916Z,100391.74
2019-02-02T21:17:34.448Z,100386.93
2019-02-02T21:20:06.506Z,100388.59
2019-02-02T21:22:37.258Z,100381.36
2019-02-02T21:25:09.017Z,100379.31
2019-02-02T21:27:40.331Z,100392.80
2019-02-02T21:30:18.009Z,100392.80
2019-02-02T21:32:48.880Z,100392.82
2019-02-02T21:35:19.600Z,100400.54
2019-02-02T21:37:50.438Z,100390.61
2019-02-02T21:40:22.889Z,100398.03
2019-02-02T21:42:53.468Z,100396.77
2019-02-02T21:45:24.073Z,100396.77
2019-02-02T21:47:55.980Z,100399.91
2019-02-02T21:50:27.265Z,100395.09
2019-02-02T21:52:58.394Z,100397.67
2019-02-02T21:55:29.613Z,100397.67
2019-02-02T21:58:00.244Z,100397.63
2019-02-02T22:00:39.607Z,100402.70
2019-02-02T22:03:10.512Z,100397.73
2019-02-02T22:05:41.517Z,100395.12
2019-02-02T22:08:15.186Z,100399.16
2019-02-02T22:10:47.057Z,100390.77
2019-02-02T22:13:17.711Z,100396.63
2019-02-02T22:15:48.560Z,100399.63
2019-02-02T22:18:21.713Z,100395.42
2019-02-02T22:20:50.880Z,100391.60
2019-02-02T22:23:21.001Z,100384.48
2019-02-02T22:25:51.531Z,100387.03
2019-02-02T22:28:22.421Z,100393.22
2019-02-02T22:30:53.140Z,100388.33
2019-02-02T22:33:25.175Z,100389.91
2019-02-02T22:35:55.701Z,100385.73
2019-02-02T22:38:26.208Z,100388.16
2019-02-02T22:40:56.674Z,100388.08
2019-02-02T22:43:27.218Z,100384.58
2019-02-02T22:45:58.143Z,100381.33
2019-02-02T22:48:28.542Z,100386.30
2019-02-02T22:50:58.964Z,100388.25
2019-02-02T22:53:29.840Z,100388.19
2019-02-02T22:56:00.026Z,100386.72
2019-02-02T22:58:30.461Z,100387.80
2019-02-02T23:01:47.437Z,100388.47
2019-02-02T23:04:29.813Z,100387.45
2019-02-02T23:07:18.721Z,100382.75
2019-02-02T23:10:28.385Z,100389.83
2019-02-02T23:13:30.808Z,100392.48
2019-02-02T23:16:24.850Z,100383.59
2019-02-02T23:18:56.133Z,100393.10
2019-02-02T23:21:27.280Z,100368.27
2019-02-02T23:23:58.224Z,100392.20
2019-02-02T23:26:29.143Z,100395.97
2019-02-02T23:28:59.367Z,100386.95
2019-02-02T23:31:29.880Z,100390.41
2019-02-02T23:34:00.246Z,100398.79
2019-02-02T23:36:30.689Z,100389.95
2019-02-02T23:39:01.252Z,100389.89
2019-02-02T23:41:32.471Z,100394.52
2019-02-02T23:44:02.906Z,100392.02
2019-02-02T23:46:33.577Z,100390.74
2019-02-02T23:49:04.473Z,100391.20
2019-02-02T23:51:34.921Z,100391.20
2019-02-02T23:54:05.604Z,100392.31
2019-02-02T23:56:36.337Z,100388.31
2019-02-02T23:59:09.545Z,100392.91
